createdAt,value
2017-10-30T00:07:08.150Z,84.46
2017-10-30T00:27:43.416Z,84.98
2017-10-30T00:48:16.537Z,85.17
2017-10-30T01:08:52.732Z,85.72
2017-10-30T01:29:29.500Z,85.83
2017-10-30T01:50:06.346Z,86.94
2017-10-30T02:10:40.391Z,86.56
2017-10-30T02:31:16.213Z,86.50
2017-10-30T02:51:46.942Z,86.63
2017-10-30T03:12:20.983Z,87.82
2017-10-30T03:32:52.569Z,87.53
2017-10-30T03:53:25.698Z,86.98
2017-10-30T04:14:01.067Z,86.96
2017-10-30T04:34:33.270Z,86.90
2017-10-30T04:55:08.498Z,86.44
2017-10-30T05:15:43.393Z,86.75
2017-10-30T05:36:17.748Z,86.75
2017-10-30T05:56:52.096Z,87.87
2017-10-30T06:17:29.215Z,88.18
2017-10-30T06:38:07.679Z,87.92
2017-10-30T06:58:44.665Z,89.00
2017-10-30T07:19:20.224Z,88.95
2017-10-30T07:39:56.134Z,88.17
2017-10-30T08:00:35.400Z,89.09
2017-10-30T08:21:15.288Z,89.49
2017-10-30T08:41:48.713Z,85.74
2017-10-30T09:02:29.488Z,81.54
2017-10-30T09:44:15.081Z,75.35
2017-10-30T10:04:50.348Z,73.43
2017-10-30T10:25:30.454Z,70.81
2017-10-30T10:46:04.884Z,68.48
2017-10-30T11:06:38.924Z,65.25
2017-10-30T11:27:21.528Z,65.77
2017-10-30T11:47:55.612Z,65.56
2017-10-30T12:08:32.725Z,63.68
2017-10-30T12:29:11.072Z,62.48
2017-10-30T12:49:52.486Z,61.24
2017-10-30T13:10:23.461Z,63.21
2017-10-30T13:30:57.160Z,64.43
2017-10-30T13:51:30.006Z,60.53
2017-10-30T14:12:10.447Z,63.10
2017-10-30T14:32:44.655Z,60.61
2017-10-30T14:53:21.661Z,62.67
2017-10-30T15:13:55.703Z,60.61
2017-10-30T15:34:30.050Z,60.79
2017-10-30T15:55:07.590Z,68.13
2017-10-30T16:15:37.522Z,71.38
2017-10-30T16:36:10.981Z,73.16
2017-10-30T16:56:45.916Z,74.55
2017-10-30T17:17:24.470Z,75.41
2017-10-30T17:38:02.730Z,77.32
2017-10-30T17:58:42.791Z,78.96
2017-10-30T18:19:22.981Z,80.22
2017-10-30T18:39:58.250Z,80.73
2017-10-30T19:00:30.449Z,81.97
2017-10-30T19:21:05.951Z,82.90
2017-10-30T19:41:38.240Z,82.64
2017-10-30T20:02:13.191Z,84.16
2017-10-30T20:22:46.311Z,84.97
2017-10-30T20:43:24.659Z,84.95
2017-10-30T21:04:01.140Z,84.98
2017-10-30T21:24:36.415Z,85.24
2017-10-30T21:45:12.319Z,86.19
2017-10-30T22:05:47.875Z,85.87
2017-10-30T22:26:27.067Z,86.54
2017-10-30T22:47:05.200Z,85.57
2017-10-30T23:07:44.473Z,85.12
2017-10-30T23:28:25.889Z,86.73
2017-10-30T23:49:02.128Z,87.30
